createdAt,value
2022-10-08T00:01:09.379Z,72.60
2022-10-08T00:04:35.542Z,72.60
2022-10-08T00:07:59.805Z,72.50
2022-10-08T00:11:27.816Z,72.40
2022-10-08T00:14:51.472Z,72.30
2022-10-08T00:18:14.967Z,72.00
2022-10-08T00:21:42.940Z,71.80
2022-10-08T00:25:08.264Z,71.80
2022-10-08T00:28:31.979Z,71.60
2022-10-08T00:31:55.504Z,71.40
2022-10-08T00:35:19.004Z,71.20
2022-10-08T00:38:43.898Z,71.10
2022-10-08T00:42:07.358Z,71.10
2022-10-08T00:45:31.969Z,71.00
2022-10-08T00:49:05.901Z,71.00
2022-10-08T00:52:36.001Z,71.00
2022-10-08T00:56:00.856Z,71.10
2022-10-08T00:59:26.271Z,71.10
2022-10-08T01:02:50.350Z,71.20
2022-10-08T01:06:28.279Z,71.20
2022-10-08T01:10:03.939Z,71.50
2022-10-08T01:13:42.831Z,71.50
2022-10-08T01:17:17.883Z,71.70
2022-10-08T01:20:59.915Z,71.80
2022-10-08T01:24:57.149Z,72.00
2022-10-08T01:28:31.942Z,72.10
2022-10-08T01:32:03.150Z,72.30
2022-10-08T01:35:34.240Z,72.60
2022-10-08T01:39:06.500Z,72.70
2022-10-08T01:42:34.860Z,72.80
2022-10-08T01:46:09.401Z,72.80
2022-10-08T01:49:42.149Z,72.80
2022-10-08T01:53:12.767Z,72.90
2022-10-08T01:56:41.191Z,72.90
2022-10-08T02:00:10.142Z,73.10
2022-10-08T02:03:37.725Z,73.20
2022-10-08T02:07:07.366Z,73.30
2022-10-08T02:10:31.522Z,73.40
2022-10-08T02:13:55.024Z,73.50
2022-10-08T02:17:29.872Z,73.70
2022-10-08T02:21:00.467Z,73.70
2022-10-08T02:24:34.483Z,73.70
2022-10-08T02:28:09.310Z,73.70
2022-10-08T02:31:40.981Z,73.60
2022-10-08T02:35:14.259Z,73.80
2022-10-08T02:38:46.118Z,73.70
2022-10-08T02:42:15.012Z,73.70
2022-10-08T02:45:46.482Z,74.50
2022-10-08T02:49:16.275Z,73.80
2022-10-08T02:52:45.457Z,73.80
2022-10-08T02:56:18.620Z,73.90
2022-10-08T02:59:43.277Z,73.90
2022-10-08T03:03:13.252Z,73.70
2022-10-08T03:06:37.856Z,73.70
2022-10-08T03:10:05.605Z,73.80
2022-10-08T03:13:34.582Z,74.70
2022-10-08T03:16:58.065Z,73.90
2022-10-08T03:20:23.224Z,73.70
2022-10-08T03:23:47.107Z,73.70
2022-10-08T03:27:10.507Z,73.70
2022-10-08T03:30:35.660Z,73.90
2022-10-08T03:33:59.471Z,74.30
2022-10-08T03:37:23.114Z,74.50
2022-10-08T03:40:56.651Z,74.70
2022-10-08T03:44:20.422Z,74.90
2022-10-08T03:47:45.297Z,74.80
2022-10-08T03:51:12.719Z,75.00
2022-10-08T03:54:36.585Z,75.10
2022-10-08T03:58:00.146Z,75.30
2022-10-08T04:01:25.108Z,75.20
2022-10-08T04:04:50.062Z,75.20
2022-10-08T04:08:13.466Z,75.20
2022-10-08T04:11:36.849Z,75.30
2022-10-08T04:15:00.242Z,75.30
2022-10-08T04:18:23.757Z,75.30
2022-10-08T04:21:48.521Z,75.20
2022-10-08T04:25:11.933Z,75.00
2022-10-08T04:28:38.761Z,74.80
2022-10-08T04:32:02.494Z,75.40
2022-10-08T04:35:26.368Z,74.60
2022-10-08T04:38:52.019Z,74.70
2022-10-08T04:42:15.475Z,74.90
2022-10-08T04:45:44.744Z,75.00
2022-10-08T04:49:08.209Z,75.20
2022-10-08T04:52:33.132Z,75.20
2022-10-08T04:55:58.948Z,75.30
2022-10-08T04:59:22.377Z,75.40
2022-10-08T05:02:46.864Z,75.50
2022-10-08T05:06:11.685Z,75.40
2022-10-08T05:09:35.182Z,75.40
2022-10-08T05:12:59.939Z,75.40
2022-10-08T05:16:24.736Z,75.50
2022-10-08T05:19:48.296Z,75.50
2022-10-08T05:23:12.076Z,75.30
2022-10-08T05:26:58.524Z,75.30
2022-10-08T05:30:23.124Z,75.40
2022-10-08T05:33:46.625Z,75.50
2022-10-08T05:37:10.063Z,75.40
2022-10-08T05:40:33.555Z,75.20
2022-10-08T05:43:58.784Z,75.10
2022-10-08T05:47:23.628Z,75.00
2022-10-08T05:50:47.039Z,74.90
2022-10-08T05:54:10.516Z,74.90
2022-10-08T05:57:34.212Z,74.80
2022-10-08T06:00:59.424Z,74.90
2022-10-08T06:04:24.282Z,75.10
2022-10-08T06:07:47.687Z,75.00
2022-10-08T06:11:11.452Z,75.00
2022-10-08T06:14:35.020Z,75.10
2022-10-08T06:17:58.481Z,75.20
2022-10-08T06:21:26.378Z,75.30
2022-10-08T06:24:49.777Z,75.20
2022-10-08T06:28:13.679Z,75.30
2022-10-08T06:31:37.602Z,75.30
2022-10-08T06:35:01.345Z,75.40
2022-10-08T06:38:26.147Z,75.50
2022-10-08T06:41:49.518Z,75.50
2022-10-08T06:45:12.877Z,75.60
2022-10-08T06:48:36.421Z,75.60
2022-10-08T06:51:59.850Z,75.70
2022-10-08T06:55:24.776Z,75.40
2022-10-08T06:58:49.256Z,75.60
2022-10-08T07:02:12.846Z,75.60
2022-10-08T07:05:36.371Z,75.60
2022-10-08T07:09:01.951Z,75.70
2022-10-08T07:12:26.852Z,75.60
2022-10-08T07:15:50.281Z,75.70
2022-10-08T07:19:13.777Z,75.90
2022-10-08T07:22:37.180Z,75.60
2022-10-08T07:26:03.628Z,75.50
2022-10-08T07:29:28.463Z,75.60
2022-10-08T07:32:53.814Z,75.70
2022-10-08T07:36:20.692Z,76.10
2022-10-08T07:39:44.194Z,76.50
2022-10-08T07:43:07.595Z,76.70
2022-10-08T07:46:34.485Z,76.40
2022-10-08T07:49:57.894Z,76.30
2022-10-08T07:53:21.640Z,76.40
2022-10-08T07:56:46.029Z,76.90
2022-10-08T08:00:11.141Z,77.10
2022-10-08T08:03:38.829Z,77.40
2022-10-08T08:07:02.216Z,76.80
2022-10-08T08:10:25.647Z,75.70
2022-10-08T08:13:49.715Z,75.20
2022-10-08T08:17:13.243Z,73.70
2022-10-08T08:20:38.010Z,73.10
2022-10-08T08:24:07.324Z,72.90
2022-10-08T08:27:30.863Z,73.20
2022-10-08T08:30:54.267Z,71.60
2022-10-08T08:34:21.131Z,71.50
2022-10-08T08:37:46.069Z,70.50
2022-10-08T08:41:34.889Z,70.90
2022-10-08T08:45:01.656Z,70.40
2022-10-08T08:48:32.989Z,70.40
2022-10-08T08:51:59.141Z,69.30
2022-10-08T08:55:36.217Z,71.00
2022-10-08T08:59:06.461Z,74.20
2022-10-08T09:02:35.693Z,76.90
2022-10-08T09:06:09.783Z,75.50
2022-10-08T09:09:40.174Z,75.60
2022-10-08T09:13:05.267Z,72.90
2022-10-08T09:16:29.410Z,72.00
2022-10-08T09:19:52.957Z,71.80
2022-10-08T09:23:19.512Z,71.90
2022-10-08T09:26:43.718Z,72.70
2022-10-08T09:30:34.190Z,72.90
2022-10-08T09:34:05.213Z,70.00
2022-10-08T09:37:28.796Z,71.30
2022-10-08T09:41:07.684Z,70.30
2022-10-08T09:44:41.958Z,64.70
2022-10-08T09:48:32.340Z,64.60
2022-10-08T09:52:00.167Z,64.00
2022-10-08T09:55:31.906Z,71.70
2022-10-08T09:58:59.632Z,68.20
2022-10-08T10:02:32.198Z,66.40
2022-10-08T10:06:20.377Z,64.60
2022-10-08T10:09:55.398Z,62.00
2022-10-08T10:13:24.440Z,59.90
2022-10-08T10:16:59.383Z,60.60
2022-10-08T10:20:30.744Z,62.50
2022-10-08T10:24:28.361Z,62.50
2022-10-08T10:27:59.507Z,62.40
2022-10-08T10:31:29.300Z,59.10
2022-10-08T10:35:06.018Z,57.90
2022-10-08T10:38:32.210Z,54.80
2022-10-08T10:42:09.225Z,57.00
2022-10-08T10:45:36.013Z,58.10
2022-10-08T10:49:00.439Z,57.80
2022-10-08T10:52:46.736Z,58.70
2022-10-08T10:56:16.972Z,55.70
2022-10-08T10:59:52.047Z,58.60
2022-10-08T11:03:24.306Z,57.50
2022-10-08T11:07:05.393Z,55.10
2022-10-08T11:10:57.257Z,53.50
2022-10-08T11:14:44.564Z,54.00
2022-10-08T11:18:32.982Z,57.80
2022-10-08T11:22:10.150Z,59.50
2022-10-08T11:26:03.031Z,60.10
2022-10-08T11:29:38.689Z,58.60
2022-10-08T11:33:02.693Z,55.00
2022-10-08T11:36:42.405Z,53.60
2022-10-08T11:40:21.770Z,53.30
2022-10-08T11:43:53.707Z,56.60
2022-10-08T11:47:49.559Z,57.20
2022-10-08T11:51:37.599Z,52.70
2022-10-08T11:55:02.863Z,51.20
2022-10-08T11:58:31.311Z,51.40
2022-10-08T12:01:58.353Z,52.50
2022-10-08T12:05:44.502Z,53.00
2022-10-08T12:09:24.657Z,52.10
2022-10-08T12:13:24.949Z,52.40
2022-10-08T12:17:11.505Z,50.60
2022-10-08T12:20:37.950Z,50.30
2022-10-08T12:24:01.568Z,51.80
2022-10-08T12:27:37.397Z,52.60
2022-10-08T12:31:03.181Z,51.80
2022-10-08T12:34:26.920Z,52.30
2022-10-08T12:38:17.235Z,52.40
2022-10-08T12:41:56.879Z,51.00
2022-10-08T12:45:30.071Z,51.40
2022-10-08T12:49:01.021Z,52.20
2022-10-08T12:52:25.713Z,50.80
2022-10-08T12:55:56.035Z,51.60
2022-10-08T12:59:22.112Z,50.90
2022-10-08T13:03:00.673Z,52.30
2022-10-08T13:06:33.158Z,50.60
2022-10-08T13:10:00.463Z,50.30
2022-10-08T13:13:44.827Z,50.50
2022-10-08T13:17:30.678Z,50.60
2022-10-08T13:21:01.268Z,51.00
2022-10-08T13:24:43.470Z,51.00
2022-10-08T13:28:15.623Z,51.70
2022-10-08T13:31:39.134Z,51.00
2022-10-08T13:35:05.928Z,51.70
2022-10-08T13:38:34.863Z,51.90
2022-10-08T13:42:01.803Z,51.40
2022-10-08T13:45:28.503Z,52.00
2022-10-08T13:48:51.975Z,52.20
2022-10-08T13:52:18.107Z,52.40
2022-10-08T13:55:46.282Z,52.20
2022-10-08T13:59:11.564Z,51.80
2022-10-08T14:02:35.132Z,52.30
2022-10-08T14:05:59.319Z,53.40
2022-10-08T14:09:26.510Z,53.90
2022-10-08T14:12:51.314Z,54.30
2022-10-08T14:16:15.134Z,53.50
2022-10-08T14:19:38.588Z,52.70
2022-10-08T14:23:02.425Z,52.80
2022-10-08T14:26:25.896Z,53.10
2022-10-08T14:29:50.808Z,52.80
2022-10-08T14:33:14.341Z,51.90
2022-10-08T14:36:41.612Z,52.70
2022-10-08T14:40:08.380Z,52.70
2022-10-08T14:43:32.013Z,53.10
2022-10-08T14:46:56.970Z,53.40
2022-10-08T14:50:20.578Z,53.60
2022-10-08T14:53:44.107Z,53.90
2022-10-08T14:57:07.506Z,54.00
2022-10-08T15:00:30.929Z,54.20
2022-10-08T15:03:55.826Z,54.30
2022-10-08T15:07:19.286Z,54.00
2022-10-08T15:10:42.933Z,54.00
2022-10-08T15:14:06.913Z,54.10
2022-10-08T15:17:30.353Z,54.10
2022-10-08T15:21:00.442Z,54.30
2022-10-08T15:24:24.049Z,54.10
2022-10-08T15:27:47.844Z,54.50
2022-10-08T15:31:15.021Z,54.50
2022-10-08T15:34:38.604Z,54.50
2022-10-08T15:38:03.390Z,54.60
2022-10-08T15:41:28.713Z,55.00
2022-10-08T15:44:52.074Z,55.00
2022-10-08T15:48:16.716Z,54.40
2022-10-08T15:51:40.295Z,54.30
2022-10-08T15:55:05.734Z,54.20
2022-10-08T15:58:49.956Z,54.70
2022-10-08T16:02:17.591Z,54.80
2022-10-08T16:05:41.681Z,55.10
2022-10-08T16:09:05.927Z,55.10
2022-10-08T16:12:30.670Z,55.10
2022-10-08T16:15:54.038Z,55.30
2022-10-08T16:19:20.560Z,55.60
2022-10-08T16:22:44.026Z,55.50
2022-10-08T16:26:09.669Z,55.30
2022-10-08T16:29:34.431Z,55.60
2022-10-08T16:32:57.764Z,55.60
2022-10-08T16:36:21.183Z,55.80
2022-10-08T16:39:45.078Z,55.80
2022-10-08T16:43:08.636Z,55.90
2022-10-08T16:46:37.819Z,56.00
2022-10-08T16:50:01.900Z,56.10
2022-10-08T16:53:25.656Z,56.90
2022-10-08T16:56:49.620Z,56.30
2022-10-08T17:00:14.840Z,56.60
2022-10-08T17:03:39.767Z,56.50
2022-10-08T17:07:03.405Z,56.50
2022-10-08T17:10:30.091Z,56.70
2022-10-08T17:13:56.555Z,56.70
2022-10-08T17:17:20.074Z,56.80
2022-10-08T17:20:45.230Z,56.90
2022-10-08T17:24:11.665Z,56.90
2022-10-08T17:27:35.164Z,56.90
2022-10-08T17:31:01.072Z,57.10
2022-10-08T17:34:24.837Z,57.20
2022-10-08T17:37:49.914Z,57.20
2022-10-08T17:41:16.214Z,57.30
2022-10-08T17:44:40.204Z,57.50
2022-10-08T17:48:04.137Z,57.50
2022-10-08T17:51:29.814Z,57.70
2022-10-08T17:54:54.711Z,57.80
2022-10-08T17:58:18.162Z,57.90
2022-10-08T18:01:45.080Z,57.90
2022-10-08T18:05:09.983Z,58.00
2022-10-08T18:08:34.083Z,58.10
2022-10-08T18:11:58.945Z,58.20
2022-10-08T18:15:23.277Z,58.30
2022-10-08T18:18:48.371Z,58.40
2022-10-08T18:22:12.123Z,58.50
2022-10-08T18:25:36.592Z,58.60
2022-10-08T18:29:05.231Z,58.90
2022-10-08T18:32:28.779Z,59.00
2022-10-08T18:35:52.457Z,59.00
2022-10-08T18:39:18.811Z,59.10
2022-10-08T18:42:42.950Z,59.30
2022-10-08T18:46:08.088Z,59.30
2022-10-08T18:49:32.968Z,59.50
2022-10-08T18:52:56.416Z,60.20
2022-10-08T18:56:23.146Z,59.70
2022-10-08T18:59:46.875Z,59.90
2022-10-08T19:03:11.945Z,59.80
2022-10-08T19:06:39.048Z,59.90
2022-10-08T19:10:02.692Z,60.00
2022-10-08T19:13:26.270Z,60.00
2022-10-08T19:16:51.100Z,60.10
2022-10-08T19:20:16.242Z,60.20
2022-10-08T19:23:40.711Z,60.30
2022-10-08T19:27:04.251Z,60.40
2022-10-08T19:30:32.887Z,60.60
2022-10-08T19:33:59.023Z,60.60
2022-10-08T19:37:23.887Z,60.80
2022-10-08T19:40:47.498Z,60.90
2022-10-08T19:44:11.820Z,60.90
2022-10-08T19:47:36.282Z,61.00
2022-10-08T19:51:05.641Z,61.20
2022-10-08T19:54:30.772Z,61.20
2022-10-08T19:57:54.443Z,61.20
2022-10-08T20:01:21.915Z,62.90
2022-10-08T20:04:46.739Z,61.40
2022-10-08T20:08:10.307Z,61.50
2022-10-08T20:11:35.751Z,61.50
2022-10-08T20:14:59.656Z,61.60
2022-10-08T20:18:24.686Z,61.70
2022-10-08T20:21:51.463Z,61.80
2022-10-08T20:25:19.028Z,62.00
2022-10-08T20:28:46.184Z,62.20
2022-10-08T20:32:11.788Z,62.50
2022-10-08T20:35:37.491Z,62.50
2022-10-08T20:39:01.255Z,62.70
2022-10-08T20:42:26.912Z,62.80
2022-10-08T20:45:51.747Z,62.90
2022-10-08T20:49:15.950Z,63.10
2022-10-08T20:52:39.612Z,63.10
2022-10-08T20:56:05.303Z,63.20
2022-10-08T20:59:28.998Z,63.40
2022-10-08T21:02:53.913Z,63.30
2022-10-08T21:06:20.163Z,63.30
2022-10-08T21:09:44.455Z,63.30
2022-10-08T21:13:08.207Z,63.30
2022-10-08T21:16:35.661Z,63.30
2022-10-08T21:20:00.656Z,63.30
2022-10-08T21:23:25.207Z,63.00
2022-10-08T21:26:51.570Z,62.90
2022-10-08T21:30:15.532Z,62.80
2022-10-08T21:33:43.698Z,62.80
2022-10-08T21:37:13.577Z,62.70
2022-10-08T21:40:37.731Z,62.80
2022-10-08T21:44:04.265Z,62.80
2022-10-08T21:47:28.732Z,62.80
2022-10-08T21:51:00.743Z,62.90
2022-10-08T21:54:25.436Z,63.20
2022-10-08T21:57:48.826Z,63.00
2022-10-08T22:01:22.830Z,63.00
2022-10-08T22:04:46.673Z,63.20
2022-10-08T22:08:10.169Z,63.20
2022-10-08T22:11:35.425Z,63.40
2022-10-08T22:14:58.896Z,63.50
2022-10-08T22:18:23.317Z,63.50
2022-10-08T22:21:49.045Z,64.20
2022-10-08T22:25:12.762Z,63.50
2022-10-08T22:28:38.473Z,63.50
2022-10-08T22:32:01.999Z,63.50
2022-10-08T22:35:25.486Z,63.70
2022-10-08T22:38:50.464Z,63.60
2022-10-08T22:42:13.857Z,63.80
2022-10-08T22:45:41.423Z,63.70
2022-10-08T22:49:08.729Z,64.00
2022-10-08T22:52:32.121Z,64.10
2022-10-08T22:55:55.649Z,64.10
2022-10-08T22:59:19.012Z,64.10
2022-10-08T23:02:43.722Z,64.10
2022-10-08T23:06:11.854Z,64.20
2022-10-08T23:09:35.267Z,64.40
2022-10-08T23:12:58.745Z,64.30
2022-10-08T23:16:22.505Z,64.30
2022-10-08T23:19:47.360Z,64.40
2022-10-08T23:23:10.928Z,64.50
2022-10-08T23:26:36.207Z,64.30
2022-10-08T23:30:01.612Z,64.50
2022-10-08T23:33:25.332Z,64.50
2022-10-08T23:36:50.563Z,64.50
2022-10-08T23:40:15.513Z,64.70
2022-10-08T23:43:43.423Z,64.60
2022-10-08T23:47:06.928Z,64.70
2022-10-08T23:50:30.394Z,64.80
2022-10-08T23:53:56.383Z,64.80
2022-10-08T23:57:20.929Z,64.80
